Time;durP1;ratioP1;P1;durP2;ratioP2;P2;SDS_P1;SDS_P2;PMS_P1;PMS_P2;Temp;Humidity;BMP_temperature;BMP_pressure;BME280_temperature;BME280_humidity;BME280_pressure;Samples;Min_cycle;Max_cycle;Signal;HPM_P1;HPM_P2
2022/06/01 04:25:57;;;;;;;;;;;17.10;64.60;;;;;;5392530;24;19932;-72
2022/06/01 04:28:22;;;;;;;;;;;17.10;64.50;;;;;;4829717;29;19928;-69
2022/06/01 04:30:48;;;;;;;;;;;17.10;64.70;;;;;;4846317;29;20279;-69
2022/06/01 04:33:13;;;;;;;;;;;17.10;64.70;;;;;;4841219;29;20358;-72
2022/06/01 04:35:39;;;;;;;;;;;17.10;64.80;;;;;;4827915;29;19935;-71
2022/06/01 04:38:14;;;;;;;;;;;17.20;64.80;;;;;;4827724;29;19925;-72
2022/06/01 04:40:43;;;;;;;;;;;17.30;64.90;;;;;;4827866;29;19925;-70
2022/06/01 04:43:10;;;;;;;;;;;17.40;65.00;;;;;;4840215;29;20351;-70
2022/06/01 04:45:36;;;;;;;;;;;17.40;65.70;;;;;;4827201;29;20349;-71
2022/06/01 04:48:01;;;;;;;;;;;17.50;65.30;;;;;;4795340;29;19936;-71
2022/06/01 04:50:27;;;;;;;;;;;17.60;65.90;;;;;;4827321;29;19936;-71
2022/06/01 04:52:52;;;;;;;;;;;17.70;65.80;;;;;;4838314;29;19955;-72
2022/06/01 04:55:18;;;;;;;;;;;17.70;65.70;;;;;;4829870;29;19924;-74
2022/06/01 04:57:43;;;;;;;;;;;17.70;64.40;;;;;;4829602;29;19932;-72
2022/06/01 05:00:10;;;;;;;;;;;17.80;66.00;;;;;;4845664;29;19932;-73
2022/06/01 05:02:36;;;;;;;;;;;17.80;66.10;;;;;;4836452;29;19963;-72
2022/06/01 05:05:02;;;;;;;;;;;17.80;66.10;;;;;;4811737;29;19972;-71
2022/06/01 05:07:28;;;;;;;;;;;17.90;66.10;;;;;;4827572;29;19924;-70
2022/06/01 05:09:53;;;;;;;;;;;17.90;64.20;;;;;;4827490;29;20024;-70
2022/06/01 05:12:19;;;;;;;;;;;17.70;63.80;;;;;;4829609;29;19974;-69
2022/06/01 05:14:45;;;;;;;;;;;17.80;64.60;;;;;;4845304;29;20344;-73
2022/06/01 05:17:10;;;;;;;;;;;17.80;65.80;;;;;;4845500;29;19924;-70
2022/06/01 05:19:36;;;;;;;;;;;17.90;66.00;;;;;;4844606;29;20328;-71
2022/06/01 05:22:02;;;;;;;;;;;17.90;66.00;;;;;;4811222;29;19929;-71
2022/06/01 05:24:27;;;;;;;;;;;18.00;66.20;;;;;;4823517;29;19925;-73
2022/06/01 05:26:53;;;;;;;;;;;18.00;65.90;;;;;;4826446;29;19925;-72
2022/06/01 05:29:18;;;;;;;;;;;18.00;65.70;;;;;;4827763;29;19924;-73
2022/06/01 05:31:44;;;;;;;;;;;18.00;65.40;;;;;;4825099;29;19935;-71
2022/06/01 05:34:10;;;;;;;;;;;18.00;65.30;;;;;;4843513;29;19928;-73
2022/06/01 05:36:36;;;;;;;;;;;18.00;65.30;;;;;;4844766;29;19925;-71
2022/06/01 05:39:03;;;;;;;;;;;18.10;66.10;;;;;;4829307;29;19963;-73
2022/06/01 05:41:28;;;;;;;;;;;18.10;66.10;;;;;;4832899;29;20355;-71
2022/06/01 05:43:54;;;;;;;;;;;18.10;65.70;;;;;;4810905;29;19924;-72
2022/06/01 05:46:21;;;;;;;;;;;18.10;63.90;;;;;;4827067;29;19975;-71
2022/06/01 05:48:46;;;;;;;;;;;18.00;64.10;;;;;;4827219;29;19971;-71
2022/06/01 05:51:12;;;;;;;;;;;18.10;65.70;;;;;;4835969;29;19972;-71
2022/06/01 05:53:37;;;;;;;;;;;18.20;64.20;;;;;;4829396;29;20383;-70
2022/06/01 05:56:03;;;;;;;;;;;18.20;64.10;;;;;;4844639;29;19925;-74
2022/06/01 05:58:29;;;;;;;;;;;18.10;65.50;;;;;;4828558;29;19921;-74
2022/06/01 06:00:55;;;;;;;;;;;18.00;64.30;;;;;;4837427;29;19950;-73
2022/06/01 06:03:23;;;;;;;;;;;18.00;64.60;;;;;;4826557;29;19927;-74
2022/06/01 06:08:34;;;;;;;;;;;18.00;65.20;;;;;;4844720;29;19924;-82
2022/06/01 06:10:59;;;;;;;;;;;18.00;65.40;;;;;;4829057;29;19928;-75
2022/06/01 06:13:25;;;;;;;;;;;18.20;65.70;;;;;;4833888;29;19983;-73
2022/06/01 06:15:50;;;;;;;;;;;18.20;64.90;;;;;;4815492;29;19925;-73
2022/06/01 06:18:16;;;;;;;;;;;18.10;63.70;;;;;;4829257;29;20024;-73
2022/06/01 06:20:43;;;;;;;;;;;18.10;64.00;;;;;;4825071;29;19924;-74
2022/06/01 06:23:09;;;;;;;;;;;18.10;64.10;;;;;;4835928;29;19924;-74
2022/06/01 06:25:35;;;;;;;;;;;18.10;64.10;;;;;;4826495;29;19936;-72
2022/06/01 06:28:00;;;;;;;;;;;18.00;64.10;;;;;;4826317;29;20264;-77
2022/06/01 06:30:26;;;;;;;;;;;18.00;63.90;;;;;;4826714;29;19931;-72
2022/06/01 06:32:52;;;;;;;;;;;18.00;64.00;;;;;;4810427;29;19928;-74
2022/06/01 06:35:17;;;;;;;;;;;18.00;64.60;;;;;;4833196;29;20020;-73
2022/06/01 06:37:43;;;;;;;;;;;18.10;64.60;;;;;;4829158;29;19931;-72
2022/06/01 06:40:10;;;;;;;;;;;18.10;64.20;;;;;;4826191;29;20015;-72
2022/06/01 06:42:35;;;;;;;;;;;18.10;64.40;;;;;;4826383;29;19925;-72
2022/06/01 06:45:02;;;;;;;;;;;18.10;64.30;;;;;;4835702;29;19947;-72
2022/06/01 06:47:29;;;;;;;;;;;18.10;64.30;;;;;;4829039;29;20015;-72
2022/06/01 06:49:54;;;;;;;;;;;18.10;64.20;;;;;;4829313;29;20305;-72
2022/06/01 06:52:20;;;;;;;;;;;18.10;64.20;;;;;;4829346;29;19925;-71
2022/06/01 06:54:46;;;;;;;;;;;18.10;64.20;;;;;;4829428;29;20347;-71
2022/06/01 06:57:12;;;;;;;;;;;18.20;64.30;;;;;;4842067;29;19953;-73
2022/06/01 06:59:37;;;;;;;;;;;18.10;64.20;;;;;;4831461;29;19979;-71
2022/06/01 07:02:03;;;;;;;;;;;18.10;64.00;;;;;;4824769;29;20366;-73
2022/06/01 07:04:29;;;;;;;;;;;18.20;64.30;;;;;;4835168;29;19924;-72
2022/06/01 07:06:54;;;;;;;;;;;18.20;64.90;;;;;;4828965;29;19957;-72
2022/06/01 07:09:20;;;;;;;;;;;18.20;65.90;;;;;;4829170;29;19924;-73
2022/06/01 07:11:45;;;;;;;;;;;18.20;65.50;;;;;;4829396;29;20329;-72
2022/06/01 07:14:11;;;;;;;;;;;18.30;65.50;;;;;;4813304;29;20341;-72
2022/06/01 07:16:37;;;;;;;;;;;18.30;65.60;;;;;;4837742;29;19925;-71
2022/06/01 07:19:04;;;;;;;;;;;18.30;65.70;;;;;;4836372;29;20424;-72
2022/06/01 07:21:30;;;;;;;;;;;18.30;66.00;;;;;;4831238;29;20240;-71
2022/06/01 07:23:55;;;;;;;;;;;18.30;65.70;;;;;;4847316;29;19925;-71
2022/06/01 07:26:25;;;;;;;;;;;18.30;65.40;;;;;;4830667;29;19930;-70
2022/06/01 07:28:50;;;;;;;;;;;18.40;65.50;;;;;;4830750;29;19924;-77
2022/06/01 07:31:17;;;;;;;;;;;18.40;65.40;;;;;;4798922;29;19981;-73
2022/06/01 07:33:43;;;;;;;;;;;18.40;65.30;;;;;;4829012;29;20349;-76
2022/06/01 07:36:09;;;;;;;;;;;18.50;65.10;;;;;;4828843;29;19968;-71
2022/06/01 07:44:22;;;;;;;;;;;18.50;64.70;;;;;;4846970;29;19925;-70
2022/06/01 07:46:47;;;;;;;;;;;18.50;64.50;;;;;;4847192;29;20251;-71
2022/06/01 07:49:13;;;;;;;;;;;18.50;64.50;;;;;;4830182;29;19924;-73
2022/06/01 07:51:39;;;;;;;;;;;18.50;64.40;;;;;;4828782;29;19925;-72
2022/06/01 07:54:05;;;;;;;;;;;18.50;64.40;;;;;;4828639;29;19987;-72
2022/06/01 07:56:31;;;;;;;;;;;18.50;64.30;;;;;;4829165;29;19960;-72
2022/06/01 07:58:57;;;;;;;;;;;18.60;64.30;;;;;;4812089;29;19925;-70
2022/06/01 08:01:25;;;;;;;;;;;18.50;64.20;;;;;;4842870;29;19935;-72
2022/06/01 08:03:58;;;;;;;;;;;18.50;64.20;;;;;;4828223;29;19987;-72
2022/06/01 08:06:25;;;;;;;;;;;18.50;64.10;;;;;;4812667;29;19925;-71
2022/06/01 08:08:51;;;;;;;;;;;18.50;64.10;;;;;;4828502;29;19971;-71
2022/06/01 08:11:17;;;;;;;;;;;18.50;64.10;;;;;;4812106;29;19979;-73
2022/06/01 08:13:42;;;;;;;;;;;18.60;64.10;;;;;;4828622;29;19929;-72
2022/06/01 08:16:08;;;;;;;;;;;18.50;64.00;;;;;;4827527;29;20309;-71
2022/06/01 08:18:34;;;;;;;;;;;18.60;64.00;;;;;;4827791;29;19925;-72
2022/06/01 08:20:59;;;;;;;;;;;18.50;64.00;;;;;;4827387;29;19925;-72
2022/06/01 08:23:26;;;;;;;;;;;18.50;64.00;;;;;;4844042;29;19934;-72
2022/06/01 08:25:52;;;;;;;;;;;18.60;64.00;;;;;;4846053;29;19972;-72
2022/06/01 08:28:18;;;;;;;;;;;18.60;64.00;;;;;;4846128;29;19971;-71
2022/06/01 08:30:43;;;;;;;;;;;18.50;63.90;;;;;;4830972;29;19925;-71
2022/06/01 08:33:09;;;;;;;;;;;18.60;64.00;;;;;;4815822;29;20260;-70
2022/06/01 08:35:40;;;;;;;;;;;18.60;63.90;;;;;;4828208;29;19932;-71
2022/06/01 08:38:06;;;;;;;;;;;18.60;63.90;;;;;;4827968;29;20350;-71
2022/06/01 08:40:45;;;;;;;;;;;18.60;63.90;;;;;;4828127;29;19944;-71
2022/06/01 08:43:12;;;;;;;;;;;18.60;63.90;;;;;;4841181;29;19976;-72
2022/06/01 08:45:39;;;;;;;;;;;18.60;63.90;;;;;;4845742;29;19925;-72
2022/06/01 08:48:05;;;;;;;;;;;18.60;63.90;;;;;;4846052;29;19932;-72
2022/06/01 08:50:32;;;;;;;;;;;18.60;63.90;;;;;;4830024;29;19924;-72
2022/06/01 08:52:59;;;;;;;;;;;18.60;63.90;;;;;;4833558;29;20020;-72
2022/06/01 08:55:26;;;;;;;;;;;18.60;63.90;;;;;;4811880;29;19945;-71
2022/06/01 08:57:52;;;;;;;;;;;18.60;63.90;;;;;;4827433;29;20345;-72
2022/06/01 09:00:20;;;;;;;;;;;18.70;64.00;;;;;;4827848;29;19931;-71
2022/06/01 09:02:45;;;;;;;;;;;18.60;63.90;;;;;;4837151;29;19924;-71
2022/06/01 09:05:14;;;;;;;;;;;18.70;64.00;;;;;;4845722;29;19931;-73
2022/06/01 09:07:46;;;;;;;;;;;18.70;64.00;;;;;;4845949;29;19931;-71
2022/06/01 09:10:20;;;;;;;;;;;18.70;64.00;;;;;;4845932;29;19963;-73
2022/06/01 09:12:47;;;;;;;;;;;18.70;64.00;;;;;;4839939;29;20015;-75
2022/06/01 09:15:23;;;;;;;;;;;18.70;63.80;;;;;;4831471;29;19987;-73
2022/06/01 09:17:49;;;;;;;;;;;18.70;63.60;;;;;;4830019;29;19930;-73
2022/06/01 09:23:01;;;;;;;;;;;18.60;63.40;;;;;;4845313;29;19924;-71
2022/06/01 09:25:28;;;;;;;;;;;18.60;63.40;;;;;;4844283;29;19931;-72
2022/06/01 09:27:59;;;;;;;;;;;18.60;63.40;;;;;;4827285;29;19970;-71
2022/06/01 09:30:35;;;;;;;;;;;18.60;63.40;;;;;;4826777;29;19983;-71
2022/06/01 09:33:04;;;;;;;;;;;18.60;63.50;;;;;;4826951;29;19975;-70
2022/06/01 09:35:38;;;;;;;;;;;18.70;63.50;;;;;;4828027;29;20007;-71
2022/06/01 09:38:10;;;;;;;;;;;18.60;63.40;;;;;;4827622;29;20422;-70
2022/06/01 09:40:36;;;;;;;;;;;18.60;63.50;;;;;;4844869;29;19924;-71
2022/06/01 09:43:02;;;;;;;;;;;18.70;63.50;;;;;;4843005;29;19928;-71
2022/06/01 09:45:29;;;;;;;;;;;18.70;63.60;;;;;;4843202;29;20403;-70
2022/06/01 09:48:18;;;;;;;;;;;18.70;63.60;;;;;;4843956;29;19924;-70
2022/06/01 09:50:45;;;;;;;;;;;18.70;63.60;;;;;;4831729;29;19924;-70
2022/06/01 09:53:10;;;;;;;;;;;18.70;63.70;;;;;;4826694;29;19932;-70
2022/06/01 09:55:48;;;;;;;;;;;18.70;63.60;;;;;;4826587;29;20421;-70
2022/06/01 10:06:05;;;;;;;;;;;18.70;63.60;;;;;;4827388;29;19925;-70
2022/06/01 10:06:48;;;;;;;;;;;18.70;63.50;;;;;;4842010;29;19924;-70
2022/06/01 10:09:19;;;;;;;;;;;18.70;63.50;;;;;;4843479;29;19925;-70
2022/06/01 10:11:46;;;;;;;;;;;18.70;63.50;;;;;;4843499;29;19963;-71
2022/06/01 10:14:18;;;;;;;;;;;18.70;63.60;;;;;;4843488;29;19938;-70
2022/06/01 10:16:46;;;;;;;;;;;18.70;63.50;;;;;;4842983;29;19924;-70
2022/06/01 10:19:14;;;;;;;;;;;18.70;63.60;;;;;;4843150;29;19928;-70
2022/06/01 10:21:45;;;;;;;;;;;18.70;63.60;;;;;;4839456;29;19956;-70
2022/06/01 10:24:16;;;;;;;;;;;18.70;63.60;;;;;;4829864;29;19924;-71
2022/06/01 10:26:45;;;;;;;;;;;18.80;63.60;;;;;;4829238;29;20264;-71
2022/06/01 10:29:13;;;;;;;;;;;18.70;63.60;;;;;;4829346;29;19932;-70
2022/06/01 10:31:42;;;;;;;;;;;18.70;63.60;;;;;;4832964;29;19934;-70
2022/06/01 10:34:26;;;;;;;;;;;18.70;63.60;;;;;;4847862;29;19932;-71
2022/06/01 10:37:11;;;;;;;;;;;18.70;63.60;;;;;;4832173;29;20349;-71
2022/06/01 10:39:50;;;;;;;;;;;18.70;63.60;;;;;;4832633;29;19924;-71
2022/06/01 10:42:17;;;;;;;;;;;18.70;63.60;;;;;;4823983;29;19925;-70
2022/06/01 10:44:46;;;;;;;;;;;18.80;63.70;;;;;;4829326;29;19925;-71
2022/06/01 10:47:18;;;;;;;;;;;18.70;63.70;;;;;;4814278;29;20302;-71
2022/06/01 10:50:00;;;;;;;;;;;18.70;63.70;;;;;;4830247;29;20419;-71
2022/06/01 10:52:31;;;;;;;;;;;18.70;63.70;;;;;;4838147;29;20328;-71
2022/06/01 10:54:57;;;;;;;;;;;18.70;63.70;;;;;;4831534;29;19953;-71
2022/06/01 10:57:23;;;;;;;;;;;18.70;63.70;;;;;;4848051;29;20023;-71
2022/06/01 10:59:49;;;;;;;;;;;18.70;63.70;;;;;;4830952;29;20011;-71
2022/06/01 11:02:24;;;;;;;;;;;18.70;63.70;;;;;;4840748;29;19993;-70
2022/06/01 11:04:50;;;;;;;;;;;18.70;63.70;;;;;;4828991;29;19940;-71
2022/06/01 11:07:34;;;;;;;;;;;18.70;63.80;;;;;;4829488;29;20020;-71
2022/06/01 11:10:06;;;;;;;;;;;18.70;63.70;;;;;;4830073;29;19933;-71
2022/06/01 11:12:47;;;;;;;;;;;18.70;63.60;;;;;;4837011;29;19924;-71
2022/06/01 11:15:13;;;;;;;;;;;18.70;63.60;;;;;;4847358;29;19950;-70
2022/06/01 11:17:49;;;;;;;;;;;18.70;63.60;;;;;;4847344;29;19924;-70
2022/06/01 11:20:33;;;;;;;;;;;18.70;63.60;;;;;;4847476;29;19924;-71
2022/06/01 11:23:11;;;;;;;;;;;18.70;63.60;;;;;;4835136;29;19925;-71
2022/06/01 11:25:57;;;;;;;;;;;18.70;63.60;;;;;;4829000;29;19925;-71
2022/06/01 11:28:32;;;;;;;;;;;18.70;63.70;;;;;;4828402;29;19928;-69
2022/06/01 11:30:57;;;;;;;;;;;18.70;63.70;;;;;;4812973;29;19924;-70
2022/06/01 11:33:27;;;;;;;;;;;18.70;63.70;;;;;;4842366;29;19978;-70
2022/06/01 11:36:05;;;;;;;;;;;18.60;63.70;;;;;;4841573;29;19925;-71
2022/06/01 11:38:35;;;;;;;;;;;18.60;63.80;;;;;;4812273;29;19924;-71
2022/06/01 11:41:08;;;;;;;;;;;18.70;63.80;;;;;;4828727;29;19924;-69
2022/06/01 11:43:33;;;;;;;;;;;18.60;63.80;;;;;;4826483;29;19935;-70
2022/06/01 11:46:02;;;;;;;;;;;18.60;63.70;;;;;;4846820;29;19979;-69
2022/06/01 11:48:32;;;;;;;;;;;18.60;63.70;;;;;;4847144;29;20302;-69
2022/06/01 11:51:15;;;;;;;;;;;18.60;63.60;;;;;;4830489;29;19924;-70
2022/06/01 11:53:59;;;;;;;;;;;18.60;63.60;;;;;;4828344;29;20367;-69
2022/06/01 11:56:25;;;;;;;;;;;18.60;63.60;;;;;;4828276;29;19936;-69
2022/06/01 11:59:05;;;;;;;;;;;18.60;63.70;;;;;;4828766;29;19924;-71
2022/06/01 12:01:44;;;;;;;;;;;18.60;63.70;;;;;;4829073;29;20043;-73
2022/06/01 12:04:24;;;;;;;;;;;18.60;63.60;;;;;;4812892;29;19935;-73
2022/06/01 12:06:53;;;;;;;;;;;18.60;63.60;;;;;;4828426;29;20015;-74
2022/06/01 12:09:34;;;;;;;;;;;18.60;63.60;;;;;;4827715;29;19925;-73
2022/06/01 12:12:00;;;;;;;;;;;18.60;63.60;;;;;;4836975;29;19924;-74
2022/06/01 12:14:38;;;;;;;;;;;18.60;63.70;;;;;;4829983;29;19946;-72
2022/06/01 12:17:22;;;;;;;;;;;18.60;63.80;;;;;;4829931;29;19925;-74
2022/06/01 12:19:48;;;;;;;;;;;18.60;63.80;;;;;;4846118;29;19972;-73
2022/06/01 12:30:52;;;;;;;;;;;18.50;63.80;;;;;;4827887;29;20012;-73
2022/06/01 12:33:29;;;;;;;;;;;18.50;63.80;;;;;;4825855;29;20027;-73
2022/06/01 12:35:56;;;;;;;;;;;18.50;63.80;;;;;;4829530;29;19928;-74
2022/06/01 12:38:28;;;;;;;;;;;18.50;63.80;;;;;;4845880;29;20439;-74
2022/06/01 12:41:00;;;;;;;;;;;18.50;63.80;;;;;;4846380;29;19936;-74
2022/06/01 12:43:25;;;;;;;;;;;18.50;63.80;;;;;;4813110;29;20356;-73
2022/06/01 12:45:53;;;;;;;;;;;18.50;63.80;;;;;;4825023;29;19967;-70
2022/06/01 12:48:22;;;;;;;;;;;18.50;63.80;;;;;;4827008;29;20008;-70
2022/06/01 12:50:56;;;;;;;;;;;18.50;63.80;;;;;;4827219;29;19924;-70
2022/06/01 12:53:26;;;;;;;;;;;18.50;63.80;;;;;;4842215;29;19936;-71
2022/06/01 12:56:04;;;;;;;;;;;18.50;63.80;;;;;;4829721;29;19936;-71
2022/06/01 12:58:32;;;;;;;;;;;18.50;63.80;;;;;;4829257;29;20375;-71
2022/06/01 13:00:58;;;;;;;;;;;18.50;63.90;;;;;;4829339;29;19924;-71
2022/06/01 13:03:32;;;;;;;;;;;18.50;63.90;;;;;;4830481;29;19944;-71
2022/06/01 13:05:59;;;;;;;;;;;18.50;63.90;;;;;;4827135;29;19924;-70
2022/06/01 13:08:32;;;;;;;;;;;18.50;63.90;;;;;;4827065;29;19964;-71
2022/06/01 13:11:12;;;;;;;;;;;18.50;63.90;;;;;;4810636;29;19924;-70
2022/06/01 13:13:40;;;;;;;;;;;18.50;63.90;;;;;;4836552;29;20360;-71
2022/06/01 13:16:07;;;;;;;;;;;18.50;63.90;;;;;;4826885;29;20011;-71
2022/06/01 13:18:41;;;;;;;;;;;18.50;63.90;;;;;;4827166;29;19929;-71
2022/06/01 13:21:09;;;;;;;;;;;18.50;63.90;;;;;;4827127;29;19947;-70
2022/06/01 13:23:53;;;;;;;;;;;18.50;63.90;;;;;;4830468;29;19924;-69
2022/06/01 13:26:37;;;;;;;;;;;18.50;64.00;;;;;;4844907;29;19924;-70
2022/06/01 13:29:20;;;;;;;;;;;18.50;64.00;;;;;;4830178;29;20284;-70
2022/06/01 13:31:50;;;;;;;;;;;18.40;63.90;;;;;;4829067;29;20280;-71
2022/06/01 13:34:22;;;;;;;;;;;18.50;64.00;;;;;;4819228;29;19924;-71
2022/06/01 13:36:48;;;;;;;;;;;18.40;63.90;;;;;;4810685;29;19935;-70
2022/06/01 13:39:14;;;;;;;;;;;18.50;64.00;;;;;;4827310;29;19947;-71
2022/06/01 13:41:51;;;;;;;;;;;18.50;64.00;;;;;;4826580;29;20400;-71
2022/06/01 13:44:37;;;;;;;;;;;18.50;64.00;;;;;;4818974;29;19935;-69
2022/06/01 13:47:02;;;;;;;;;;;18.50;64.00;;;;;;4827845;29;20000;-71
2022/06/01 13:49:28;;;;;;;;;;;18.50;64.00;;;;;;4827668;29;19932;-71
2022/06/01 13:51:58;;;;;;;;;;;18.50;64.00;;;;;;4844106;29;19992;-71
2022/06/01 13:54:29;;;;;;;;;;;18.50;64.00;;;;;;4835579;29;19928;-69
2022/06/01 13:57:03;;;;;;;;;;;18.50;64.00;;;;;;4810389;29;20409;-71
2022/06/01 13:59:31;;;;;;;;;;;18.50;64.00;;;;;;4810707;29;19928;-71
2022/06/01 14:02:03;;;;;;;;;;;18.50;64.00;;;;;;4832706;29;19928;-71
2022/06/01 14:04:37;;;;;;;;;;;18.50;64.00;;;;;;4844527;29;20225;-71
2022/06/01 14:07:04;;;;;;;;;;;18.50;64.00;;;;;;4844685;29;19924;-70
2022/06/01 14:09:32;;;;;;;;;;;18.50;64.00;;;;;;4844972;29;20019;-71
2022/06/01 14:11:58;;;;;;;;;;;18.50;64.00;;;;;;4838930;29;19932;-71
2022/06/01 14:14:28;;;;;;;;;;;18.40;64.00;;;;;;4826379;29;19936;-70
2022/06/01 14:16:54;;;;;;;;;;;18.50;64.00;;;;;;4825179;29;19985;-71
2022/06/01 14:19:20;;;;;;;;;;;18.50;64.00;;;;;;4826758;29;19967;-70
2022/06/01 14:21:51;;;;;;;;;;;18.50;64.00;;;;;;4830324;29;20416;-71
2022/06/01 14:24:17;;;;;;;;;;;18.50;64.00;;;;;;4844350;29;19924;-70
2022/06/01 14:29:27;;;;;;;;;;;18.50;64.00;;;;;;4841326;29;19924;-70
2022/06/01 14:31:57;;;;;;;;;;;18.50;64.00;;;;;;4844177;29;19928;-70
2022/06/01 14:34:23;;;;;;;;;;;18.50;63.90;;;;;;4845262;29;20205;-72
2022/06/01 14:36:49;;;;;;;;;;;18.50;63.90;;;;;;4844436;29;20268;-71
2022/06/01 14:39:15;;;;;;;;;;;18.40;63.90;;;;;;4840296;29;19924;-71
2022/06/01 14:41:45;;;;;;;;;;;18.40;63.90;;;;;;4811108;29;19943;-70
2022/06/01 14:44:15;;;;;;;;;;;18.50;63.90;;;;;;4809659;29;19935;-71
2022/06/01 14:46:41;;;;;;;;;;;18.50;64.00;;;;;;4826448;29;19932;-72
2022/06/01 14:49:06;;;;;;;;;;;18.50;64.00;;;;;;4828776;29;19929;-72
2022/06/01 14:51:37;;;;;;;;;;;18.40;63.90;;;;;;4843933;29;19939;-75
2022/06/01 14:54:04;;;;;;;;;;;18.40;64.00;;;;;;4844099;29;19935;-73
2022/06/01 14:56:30;;;;;;;;;;;18.50;63.90;;;;;;4828419;29;20337;-73
2022/06/01 14:59:00;;;;;;;;;;;18.50;63.90;;;;;;4842774;29;19936;-71
2022/06/01 15:01:32;;;;;;;;;;;18.50;64.10;;;;;;4826207;29;19935;-72
2022/06/01 15:03:59;;;;;;;;;;;18.50;64.20;;;;;;4826181;29;19925;-72
2022/06/01 15:06:25;;;;;;;;;;;18.50;64.40;;;;;;4826423;29;19931;-71
2022/06/01 15:08:50;;;;;;;;;;;18.50;64.70;;;;;;4826632;29;20245;-71
2022/06/01 15:11:16;;;;;;;;;;;18.50;64.60;;;;;;4846628;29;19995;-72
2022/06/01 15:13:42;;;;;;;;;;;18.50;64.30;;;;;;4847694;29;20392;-72
2022/06/01 15:16:08;;;;;;;;;;;18.50;64.10;;;;;;4831655;29;20245;-73
2022/06/01 15:18:43;;;;;;;;;;;18.60;63.80;;;;;;4847593;29;19924;-75
2022/06/01 15:21:10;;;;;;;;;;;18.50;63.60;;;;;;4814991;29;19924;-71
2022/06/01 15:23:35;;;;;;;;;;;18.60;63.60;;;;;;4828035;29;19928;-72
2022/06/01 15:26:02;;;;;;;;;;;18.50;63.30;;;;;;4797843;29;19936;-78
2022/06/01 15:28:28;;;;;;;;;;;18.50;62.80;;;;;;4827837;29;20248;-72
2022/06/01 15:41:51;;;;;;;;;;;18.40;64.20;;;;;;4846889;29;19928;-72
2022/06/01 15:44:17;;;;;;;;;;;18.40;64.10;;;;;;4841383;29;19978;-71
2022/06/01 15:46:44;;;;;;;;;;;18.40;63.80;;;;;;4830736;29;20000;-71
2022/06/01 15:49:10;;;;;;;;;;;18.40;62.50;;;;;;4828446;29;20019;-71
2022/06/01 15:51:37;;;;;;;;;;;18.40;62.20;;;;;;4828973;29;19976;-74
2022/06/01 15:54:03;;;;;;;;;;;18.50;62.10;;;;;;4830592;29;19924;-71
2022/06/01 15:56:31;;;;;;;;;;;18.50;61.90;;;;;;4817759;29;19935;-71
2022/06/01 15:58:58;;;;;;;;;;;18.50;61.80;;;;;;4827812;29;19936;-72
2022/06/01 16:01:23;;;;;;;;;;;18.50;61.60;;;;;;4830485;29;19998;-72
2022/06/01 16:03:50;;;;;;;;;;;18.60;61.80;;;;;;4846890;29;20016;-70
2022/06/01 16:06:17;;;;;;;;;;;18.50;61.70;;;;;;4846933;29;19924;-72
2022/06/01 16:08:42;;;;;;;;;;;18.60;60.90;;;;;;4846409;29;19929;-73
2022/06/01 16:11:09;;;;;;;;;;;18.60;60.00;;;;;;4846258;29;19932;-72
2022/06/01 16:13:35;;;;;;;;;;;18.60;59.90;;;;;;4811871;29;20280;-72
2022/06/01 16:16:01;;;;;;;;;;;18.60;59.70;;;;;;4828284;29;20245;-72
2022/06/01 16:18:27;;;;;;;;;;;18.60;59.20;;;;;;4828332;29;19935;-71
2022/06/01 16:20:53;;;;;;;;;;;18.60;59.30;;;;;;4828048;29;19928;-72
2022/06/01 16:23:18;;;;;;;;;;;18.60;59.30;;;;;;4843682;29;20409;-72
2022/06/01 16:25:44;;;;;;;;;;;18.50;60.00;;;;;;4845839;29;19928;-71
2022/06/01 16:28:09;;;;;;;;;;;18.50;60.20;;;;;;4846211;29;19943;-74
2022/06/01 16:30:35;;;;;;;;;;;18.50;60.60;;;;;;4846389;29;20358;-72
2022/06/01 16:33:01;;;;;;;;;;;18.60;61.20;;;;;;4833144;29;20344;-71
2022/06/01 16:35:28;;;;;;;;;;;18.60;61.60;;;;;;4827979;29;19935;-71
2022/06/01 16:37:54;;;;;;;;;;;18.60;61.70;;;;;;4828038;29;20008;-76
2022/06/01 16:40:21;;;;;;;;;;;18.60;62.10;;;;;;4828140;29;20022;-72
2022/06/01 16:42:48;;;;;;;;;;;18.60;62.10;;;;;;4828681;29;20342;-73
2022/06/01 16:45:34;;;;;;;;;;;18.70;62.60;;;;;;4812415;29;19933;-73
2022/06/01 16:48:01;;;;;;;;;;;18.70;62.70;;;;;;4827428;29;19924;-73
2022/06/01 16:50:27;;;;;;;;;;;18.70;62.80;;;;;;4827922;29;19925;-74
2022/06/01 16:52:53;;;;;;;;;;;18.70;62.80;;;;;;4837761;29;20007;-73
2022/06/01 16:55:19;;;;;;;;;;;18.70;62.70;;;;;;4845715;29;20007;-73
2022/06/01 16:57:45;;;;;;;;;;;18.70;62.80;;;;;;4845468;29;19925;-73
2022/06/01 17:00:12;;;;;;;;;;;18.70;63.20;;;;;;4845879;29;20396;-73
2022/06/01 17:02:38;;;;;;;;;;;18.70;63.10;;;;;;4821710;29;19931;-72
2022/06/01 17:05:04;;;;;;;;;;;18.70;63.30;;;;;;4827413;29;19921;-73
2022/06/01 17:07:30;;;;;;;;;;;18.70;63.30;;;;;;4827405;29;19935;-71
2022/06/01 17:09:55;;;;;;;;;;;18.80;63.30;;;;;;4812029;29;20007;-73
2022/06/01 17:12:23;;;;;;;;;;;18.80;63.80;;;;;;4813070;29;19924;-71
2022/06/01 17:14:49;;;;;;;;;;;18.80;64.20;;;;;;4827017;29;19925;-72
2022/06/01 17:17:17;;;;;;;;;;;18.80;64.50;;;;;;4841627;29;19989;-72
2022/06/01 17:19:43;;;;;;;;;;;18.80;64.60;;;;;;4827376;29;20314;-75
2022/06/01 17:22:08;;;;;;;;;;;18.80;64.70;;;;;;4827035;29;19925;-74
2022/06/01 17:24:34;;;;;;;;;;;18.90;65.10;;;;;;4835001;29;19924;-71
2022/06/01 17:27:02;;;;;;;;;;;18.90;65.80;;;;;;4845291;29;19925;-72
2022/06/01 17:29:28;;;;;;;;;;;18.90;64.90;;;;;;4829100;29;19924;-72
2022/06/01 17:31:54;;;;;;;;;;;18.90;64.30;;;;;;4844652;29;19934;-71
2022/06/01 17:34:19;;;;;;;;;;;18.90;64.20;;;;;;4845301;29;20275;-70
2022/06/01 17:36:45;;;;;;;;;;;18.90;64.10;;;;;;4845075;29;19924;-72
2022/06/01 17:39:11;;;;;;;;;;;18.90;64.20;;;;;;4830250;29;19924;-70
2022/06/01 17:41:36;;;;;;;;;;;18.90;64.20;;;;;;4827070;29;19924;-71
2022/06/01 17:44:03;;;;;;;;;;;18.90;64.40;;;;;;4826749;29;20241;-71
2022/06/01 17:46:29;;;;;;;;;;;18.90;64.30;;;;;;4826760;29;19932;-72
2022/06/01 17:48:54;;;;;;;;;;;18.90;64.40;;;;;;4826826;29;19924;-72
2022/06/01 17:51:20;;;;;;;;;;;18.90;64.40;;;;;;4799056;29;19967;-71
2022/06/01 17:53:47;;;;;;;;;;;18.90;64.40;;;;;;4829444;29;19936;-72
2022/06/01 17:56:14;;;;;;;;;;;18.90;64.50;;;;;;4845269;29;19936;-72
2022/06/01 17:58:40;;;;;;;;;;;18.80;64.40;;;;;;4844966;29;19928;-72
2022/06/01 18:01:06;;;;;;;;;;;18.80;64.50;;;;;;4842502;29;20018;-71
2022/06/01 18:03:32;;;;;;;;;;;18.90;64.50;;;;;;4810860;29;20421;-71
2022/06/01 18:43:13;;;;;;;;;;;17.30;60.60;;;;;;4751666;30;19937;-72
2022/06/01 18:45:39;;;;;;;;;;;17.30;60.80;;;;;;4772018;30;20513;-73
2022/06/01 18:48:05;;;;;;;;;;;17.30;61.00;;;;;;4757660;30;20021;-71
2022/06/01 18:50:32;;;;;;;;;;;17.20;61.20;;;;;;4771923;30;20325;-71
2022/06/01 18:53:00;;;;;;;;;;;17.10;61.20;;;;;;4742875;30;19928;-73
2022/06/01 18:55:26;;;;;;;;;;;17.10;61.40;;;;;;4771959;30;20411;-73
2022/06/01 18:57:52;;;;;;;;;;;17.10;61.60;;;;;;4772166;30;20303;-72
2022/06/01 19:03:02;;;;;;;;;;;17.10;61.50;;;;;;4771611;30;19925;-71
2022/06/01 19:05:28;;;;;;;;;;;17.00;61.40;;;;;;4757786;30;19960;-74
2022/06/01 19:07:56;;;;;;;;;;;17.00;61.40;;;;;;4772012;30;20021;-73
2022/06/01 19:10:22;;;;;;;;;;;17.00;61.40;;;;;;4771642;30;19933;-71
2022/06/01 19:12:48;;;;;;;;;;;16.90;61.40;;;;;;4757307;30;19980;-72
2022/06/01 19:15:13;;;;;;;;;;;16.90;61.50;;;;;;4757708;30;20285;-71
2022/06/01 19:17:39;;;;;;;;;;;16.90;61.60;;;;;;4757168;30;19964;-72
2022/06/01 19:20:06;;;;;;;;;;;16.90;61.80;;;;;;4771596;30;20353;-72
2022/06/01 19:22:32;;;;;;;;;;;16.80;61.80;;;;;;4771794;30;19926;-74
2022/06/01 19:24:58;;;;;;;;;;;16.80;61.90;;;;;;4741874;30;19926;-73
2022/06/01 19:27:30;;;;;;;;;;;16.80;62.20;;;;;;4741661;30;20354;-73
2022/06/01 19:29:56;;;;;;;;;;;16.90;62.30;;;;;;4771193;30;19977;-73
2022/06/01 19:32:23;;;;;;;;;;;16.90;62.50;;;;;;4757342;30;19926;-72
2022/06/01 19:34:49;;;;;;;;;;;17.00;62.50;;;;;;4757415;30;19926;-71
2022/06/01 19:45:29;;;;;;;;;;;17.30;62.60;;;;;;4756912;30;19926;-71
2022/06/01 19:47:55;;;;;;;;;;;17.40;62.70;;;;;;4761855;30;19925;-71
2022/06/01 19:50:21;;;;;;;;;;;17.50;62.80;;;;;;4774766;30;20030;-71
2022/06/01 19:52:47;;;;;;;;;;;17.50;62.90;;;;;;4744835;30;20018;-74
2022/06/01 19:55:12;;;;;;;;;;;17.50;62.80;;;;;;4769905;30;19925;-72
2022/06/01 19:57:38;;;;;;;;;;;17.50;62.70;;;;;;4770207;30;19926;-71
2022/06/01 20:00:05;;;;;;;;;;;17.60;62.80;;;;;;4770927;30;19933;-71
2022/06/01 20:02:31;;;;;;;;;;;17.70;62.90;;;;;;4755980;30;19966;-73
2022/06/01 20:04:57;;;;;;;;;;;17.70;62.80;;;;;;4760275;30;20418;-71
2022/06/01 20:07:24;;;;;;;;;;;17.70;62.90;;;;;;4774372;30;19925;-73
2022/06/01 20:09:49;;;;;;;;;;;17.70;62.80;;;;;;4764664;30;20350;-75
2022/06/01 20:15:01;;;;;;;;;;;17.80;62.90;;;;;;4720093;30;19954;-73
2022/06/01 20:17:29;;;;;;;;;;;17.80;62.90;;;;;;4756405;30;20342;-75